Time;durP1;ratioP1;P1;durP2;ratioP2;P2;SDS_P1;SDS_P2;PMS_P1;PMS_P2;Temp;Humidity;BMP_temperature;BMP_pressure;BME280_temperature;BME280_humidity;BME280_pressure;Samples;Min_cycle;Max_cycle;Signal;HPM_P1;HPM_P2
2022/02/02 00:01:33;;;;;;;42.70;7.60;;;7.20;99.90;;;;;;5014900;28;20049;-49
2022/02/02 00:04:00;;;;;;;43.42;6.80;;;7.30;99.90;;;;;;5013760;28;20121;-49
2022/02/02 00:06:42;;;;;;;40.13;8.10;;;7.30;99.90;;;;;;5007554;28;20109;-52
2022/02/02 00:09:12;;;;;;;45.78;8.43;;;7.20;99.90;;;;;;5010314;28;20042;-50
2022/02/02 00:16:56;;;;;;;32.03;4.80;;;7.10;99.90;;;;;;5011949;28;20049;-50
2022/02/02 00:22:10;;;;;;;25.33;4.03;;;7.10;99.90;;;;;;5014134;28;20325;-50
2022/02/02 00:27:41;;;;;;;20.65;3.10;;;6.90;99.90;;;;;;5016139;28;20064;-50
2022/02/02 00:30:11;;;;;;;11.10;2.17;;;6.80;99.90;;;;;;5011341;28;20041;-50
2022/02/02 00:32:55;;;;;;;16.02;2.58;;;6.80;99.90;;;;;;5014333;28;20121;-49
2022/02/02 00:35:25;;;;;;;14.55;2.53;;;6.80;99.90;;;;;;4994873;28;20042;-49
2022/02/02 00:37:51;;;;;;;12.00;2.35;;;6.70;99.90;;;;;;5014432;28;20121;-49
2022/02/02 00:40:17;;;;;;;13.27;2.67;;;6.60;99.90;;;;;;5014204;28;20116;-50
2022/02/02 00:42:45;;;;;;;16.88;2.97;;;6.60;99.90;;;;;;5014104;28;20069;-47
2022/02/02 00:45:11;;;;;;;20.83;3.47;;;6.60;99.90;;;;;;5014048;28;20382;-49
2022/02/02 00:47:39;;;;;;;25.17;3.90;;;6.60;99.90;;;;;;5013933;28;20100;-48
2022/02/02 00:50:06;;;;;;;17.55;3.25;;;6.50;99.90;;;;;;5012949;28;20053;-50
2022/02/02 00:52:31;;;;;;;18.63;3.15;;;6.50;99.90;;;;;;4994065;28;20520;-46
2022/02/02 00:54:57;;;;;;;22.10;3.88;;;6.50;99.90;;;;;;4994027;28;20042;-51
2022/02/02 00:57:27;;;;;;;21.92;4.15;;;6.50;99.90;;;;;;4994406;28;20041;-51
2022/02/02 00:59:54;;;;;;;27.85;5.75;;;6.50;99.90;;;;;;4994275;28;20453;-50
2022/02/02 01:02:19;;;;;;;35.97;6.35;;;6.50;99.90;;;;;;4998771;28;20030;-52
2022/02/02 01:04:45;;;;;;;34.08;5.60;;;6.50;99.90;;;;;;5012794;28;20048;-50
2022/02/02 01:07:19;;;;;;;33.45;5.90;;;6.50;99.90;;;;;;5013853;28;20489;-52
2022/02/02 01:10:05;;;;;;;32.20;5.10;;;6.60;99.90;;;;;;5008616;28;20049;-48
2022/02/02 01:28:40;;;;;;;32.88;4.78;;;6.90;99.90;;;;;;5013066;28;19924;-48
2022/02/02 01:31:06;;;;;;;22.25;3.90;;;6.90;99.90;;;;;;4995578;28;20133;-50
2022/02/02 01:33:32;;;;;;;25.27;4.63;;;6.90;99.90;;;;;;5012941;28;20046;-51
2022/02/02 01:35:59;;;;;;;30.83;4.60;;;6.90;99.90;;;;;;5012708;28;20053;-50
2022/02/02 01:38:27;;;;;;;29.15;5.32;;;6.90;99.90;;;;;;5013248;28;20038;-49
2022/02/02 01:40:58;;;;;;;21.73;4.15;;;6.90;99.90;;;;;;5012814;28;20091;-50
2022/02/02 01:43:30;;;;;;;21.25;4.15;;;6.90;99.90;;;;;;4998724;28;20088;-51
2022/02/02 01:46:00;;;;;;;25.38;4.95;;;7.00;99.90;;;;;;5013229;28;20050;-49
2022/02/02 01:48:36;;;;;;;28.15;4.88;;;6.90;99.90;;;;;;5013303;28;20096;-51
2022/02/02 01:51:15;;;;;;;32.05;4.63;;;6.90;99.90;;;;;;5011507;28;20030;-51
2022/02/02 01:53:54;;;;;;;30.60;5.65;;;6.90;99.90;;;;;;5012241;28;20096;-51
2022/02/02 01:56:20;;;;;;;31.92;6.28;;;6.90;99.90;;;;;;5012481;28;20581;-50
2022/02/02 02:01:24;;;;;;;37.67;5.78;;;7.00;99.90;;;;;;5012681;28;20046;-49
2022/02/02 02:03:50;;;;;;;38.47;5.57;;;7.00;99.90;;;;;;5012612;28;20116;-50
2022/02/02 02:06:18;;;;;;;28.77;5.30;;;7.00;99.90;;;;;;5011294;28;20052;-51
2022/02/02 02:08:43;;;;;;;28.23;5.72;;;7.00;99.90;;;;;;5011911;28;20037;-48
2022/02/02 02:11:15;;;;;;;34.95;6.00;;;7.00;99.90;;;;;;5012291;28;20038;-51
2022/02/02 02:16:24;;;;;;;34.30;6.22;;;7.10;99.90;;;;;;4992766;28;20046;-48
2022/02/02 02:18:50;;;;;;;41.92;6.15;;;7.20;99.90;;;;;;4992844;28;20038;-48
2022/02/02 02:21:18;;;;;;;38.47;6.05;;;7.10;99.90;;;;;;5011125;28;20045;-47
2022/02/02 02:23:46;;;;;;;40.47;5.93;;;7.10;99.90;;;;;;5012173;28;20129;-50
2022/02/02 02:26:19;;;;;;;33.00;5.90;;;7.10;99.90;;;;;;5010821;28;20482;-49
2022/02/02 02:31:47;;;;;;;34.55;5.57;;;7.10;99.90;;;;;;5012327;28;20409;-48
2022/02/02 03:31:15;;;;;;;21.48;3.72;;;7.00;99.90;;;;;;5015397;28;20048;-47
2022/02/02 03:55:24;;;;;;;19.40;3.28;;;6.90;99.90;;;;;;5009592;28;20085;-48
2022/02/02 04:00:26;;;;;;;18.55;3.25;;;6.90;99.90;;;;;;5015060;28;20461;-50
2022/02/02 04:03:23;;;;;;;28.02;3.72;;;6.80;99.90;;;;;;5014730;28;20121;-49
2022/02/02 04:05:43;;;;;;;24.42;3.13;;;6.80;99.90;;;;;;5010315;28;20077;-48
2022/02/02 04:08:26;;;;;;;21.73;3.53;;;6.80;99.90;;;;;;5009149;28;20056;-47
2022/02/02 04:10:54;;;;;;;19.83;3.53;;;6.80;99.90;;;;;;5004604;28;20479;-49
2022/02/02 04:37:49;;;;;;;23.98;4.55;;;6.80;99.90;;;;;;5001639;28;20052;-47
2022/02/02 05:00:06;;;;;;;22.90;4.07;;;6.90;99.90;;;;;;4994341;28;20495;-49
2022/02/02 05:05:33;;;;;;;20.35;3.60;;;6.90;99.90;;;;;;5027996;28;20171;-50
2022/02/02 05:10:51;;;;;;;18.70;3.50;;;6.90;99.90;;;;;;5032816;28;20049;-50
2022/02/02 05:53:23;;;;;;;20.50;3.53;;;6.90;99.90;;;;;;5032267;28;20524;-47
2022/02/02 05:55:50;;;;;;;18.65;2.85;;;6.80;99.90;;;;;;5032482;28;20523;-50
2022/02/02 05:58:17;;;;;;;19.67;3.13;;;6.80;99.90;;;;;;5032237;28;20041;-49
2022/02/02 06:00:43;;;;;;;20.85;3.13;;;6.80;99.90;;;;;;5028436;28;20033;-50
2022/02/02 06:03:14;;;;;;;17.95;3.15;;;6.80;99.90;;;;;;5024434;28;20399;-53
2022/02/02 06:05:42;;;;;;;15.95;3.08;;;6.80;99.90;;;;;;5012533;28;20046;-53
2022/02/02 06:08:15;;;;;;;23.48;3.55;;;6.80;99.90;;;;;;5012611;28;20087;-51
2022/02/02 06:10:42;;;;;;;19.23;2.78;;;6.80;99.90;;;;;;5014982;28;20045;-52
2022/02/02 06:13:08;;;;;;;15.75;2.70;;;6.80;99.90;;;;;;5031953;28;20117;-52
2022/02/02 06:15:37;;;;;;;18.60;2.92;;;6.80;99.90;;;;;;5020622;28;20041;-50
2022/02/02 06:18:04;;;;;;;25.30;3.83;;;6.80;99.90;;;;;;5016049;28;20149;-49
2022/02/02 06:20:31;;;;;;;18.70;2.95;;;6.70;99.90;;;;;;5013542;28;20136;-49
2022/02/02 06:23:18;;;;;;;15.43;3.72;;;6.70;99.90;;;;;;5029502;28;20056;-50
2022/02/02 06:25:48;;;;;;;18.13;2.70;;;6.70;99.90;;;;;;5030793;28;20045;-48
2022/02/02 06:28:22;;;;;;;15.82;3.15;;;6.70;99.90;;;;;;5030791;28;20098;-49
2022/02/02 06:30:57;;;;;;;16.27;2.80;;;6.70;99.90;;;;;;5031062;28;20095;-49
2022/02/02 06:33:30;;;;;;;15.98;3.03;;;6.70;99.90;;;;;;5031696;28;20061;-49
2022/02/02 06:35:56;;;;;;;18.05;2.85;;;6.70;99.90;;;;;;5031417;28;20033;-51
2022/02/02 06:38:23;;;;;;;13.68;2.95;;;6.70;99.90;;;;;;5031886;28;20041;-48
2022/02/02 06:40:51;;;;;;;16.95;3.17;;;6.70;99.90;;;;;;5031578;28;20087;-50
2022/02/02 06:43:18;;;;;;;15.60;3.13;;;6.70;99.90;;;;;;5017305;28;20042;-49
2022/02/02 06:45:45;;;;;;;14.50;3.40;;;6.60;99.90;;;;;;5019269;28;20504;-48
2022/02/02 06:48:11;;;;;;;19.30;3.58;;;6.60;99.90;;;;;;5017726;28;20124;-49
2022/02/02 06:50:41;;;;;;;15.65;3.00;;;6.60;99.90;;;;;;5020542;28;20176;-50
2022/02/02 06:56:01;;;;;;;;;;;6.60;99.90;;;;;;5021785;28;20068;-51
2022/02/02 06:58:37;;;;;;;19.17;3.60;;;6.60;99.90;;;;;;5020961;28;20335;-51
2022/02/02 07:09:24;;;;;;;23.38;3.42;;;6.50;99.90;;;;;;5023145;28;20413;-50
2022/02/02 07:11:59;;;;;;;25.42;3.10;;;6.50;99.90;;;;;;5025211;28;20770;-49
2022/02/02 07:17:10;;;;;;;17.58;3.22;;;6.40;99.90;;;;;;5030433;28;20033;-51
2022/02/02 07:20:03;;;;;;;15.98;3.60;;;6.40;99.90;;;;;;5031024;28;20490;-55
2022/02/02 07:27:58;;;;;;;19.73;3.50;;;6.40;99.90;;;;;;5031116;28;20041;-55
2022/02/02 07:30:46;;;;;;;27.33;4.40;;;6.40;99.90;;;;;;5031336;28;20034;-56
2022/02/02 07:33:19;;;;;;;30.05;4.38;;;6.40;99.90;;;;;;5031010;28;20444;-54
2022/02/02 07:36:04;;;;;;;22.92;3.78;;;6.40;99.90;;;;;;5030007;28;20448;-56
2022/02/02 07:38:42;;;;;;;20.52;3.80;;;6.40;99.90;;;;;;5030025;28;20116;-55
2022/02/02 07:41:13;;;;;;;28.40;4.20;;;6.40;99.90;;;;;;5030763;28;20034;-55
2022/02/02 07:43:42;;;;;;;30.55;4.07;;;6.40;99.90;;;;;;5021420;28;20069;-56
2022/02/02 07:46:09;;;;;;;27.25;4.75;;;6.40;99.90;;;;;;5020884;28;20045;-56
2022/02/02 07:48:38;;;;;;;24.20;4.18;;;6.40;99.90;;;;;;5023006;28;20112;-56
2022/02/02 07:51:04;;;;;;;23.58;3.85;;;6.40;99.90;;;;;;5023504;28;20042;-56
2022/02/02 07:53:38;;;;;;;27.10;3.80;;;6.40;99.90;;;;;;5018305;28;20038;-55
2022/02/02 07:56:09;;;;;;;21.70;4.07;;;6.40;99.90;;;;;;5024186;28;20505;-56
2022/02/02 07:58:38;;;;;;;23.55;4.25;;;6.40;99.90;;;;;;5024286;28;20470;-56
2022/02/02 08:01:04;;;;;;;28.45;3.80;;;6.50;99.90;;;;;;5022759;28;20033;-56
2022/02/02 08:03:37;;;;;;;27.98;3.53;;;6.50;99.90;;;;;;5021373;28;20072;-54
2022/02/02 08:06:03;;;;;;;25.33;3.45;;;6.50;99.90;;;;;;5019650;28;20395;-56
2022/02/02 08:08:33;;;;;;;23.83;4.53;;;6.50;99.90;;;;;;5027373;28;20040;-56
2022/02/02 08:11:03;;;;;;;21.45;3.33;;;6.50;99.90;;;;;;5025886;28;20150;-56
2022/02/02 08:13:38;;;;;;;19.98;3.53;;;6.60;99.90;;;;;;5030549;28;20122;-56
2022/02/02 08:16:10;;;;;;;23.90;3.63;;;6.60;99.90;;;;;;5028171;28;20041;-56
2022/02/02 08:18:38;;;;;;;18.50;3.42;;;6.60;99.90;;;;;;5031652;28;20033;-56
2022/02/02 08:21:03;;;;;;;25.15;3.20;;;6.70;99.90;;;;;;5028741;28;20051;-56
2022/02/02 08:23:29;;;;;;;18.05;3.05;;;6.70;99.90;;;;;;5034044;28;20523;-53
2022/02/02 08:25:57;;;;;;;20.90;2.90;;;6.70;99.90;;;;;;5030278;28;20045;-54
2022/02/02 08:28:23;;;;;;;19.20;3.15;;;6.70;99.90;;;;;;5033714;28;20489;-55
2022/02/02 08:30:49;;;;;;;21.58;3.30;;;6.70;99.90;;;;;;5034014;28;20029;-56
2022/02/02 08:33:20;;;;;;;23.58;3.42;;;6.80;99.90;;;;;;5034016;28;20179;-55
2022/02/02 08:35:51;;;;;;;18.67;2.92;;;6.80;99.90;;;;;;5033336;28;20064;-56
2022/02/02 08:40:54;;;;;;;22.35;3.85;;;6.80;99.90;;;;;;5033640;28;20033;-56
2022/02/02 08:46:11;;;;;;;25.38;3.30;;;6.80;99.90;;;;;;5011962;28;20382;-56
2022/02/02 08:48:40;;;;;;;28.85;4.13;;;6.80;99.90;;;;;;5026904;28;20177;-56
2022/02/02 08:51:10;;;;;;;27.35;3.67;;;6.80;99.90;;;;;;5027749;28;20041;-55
2022/02/02 08:54:24;;;;;;;29.38;4.28;;;6.90;99.90;;;;;;5027307;28;20050;-56
2022/02/02 08:59:02;;;;;;;21.42;3.72;;;6.90;99.90;;;;;;5027486;28;20042;-56
2022/02/02 09:01:31;;;;;;;27.17;4.22;;;7.00;99.90;;;;;;5024224;28;20119;-55
2022/02/02 09:06:42;;;;;;;26.60;4.80;;;7.00;99.90;;;;;;5028048;28;20172;-55
2022/02/02 09:09:17;;;;;;;28.92;5.18;;;7.00;99.90;;;;;;5033438;28;20088;-53
2022/02/02 09:20:08;;;;;;;23.88;4.47;;;7.00;99.90;;;;;;5020967;28;20119;-54
2022/02/02 09:25:26;;;;;;;25.17;4.45;;;7.10;99.90;;;;;;5032827;28;20099;-55
2022/02/02 09:33:51;;;;;;;25.55;5.10;;;7.30;99.90;;;;;;5032263;28;20416;-53
2022/02/02 09:36:14;;;;;;;32.17;4.97;;;7.30;99.90;;;;;;5032658;28;20052;-54
2022/02/02 09:38:40;;;;;;;27.67;3.83;;;7.30;99.90;;;;;;5031931;28;20056;-53
2022/02/02 09:41:26;;;;;;;24.60;5.22;;;7.40;99.90;;;;;;5031409;28;20488;-55
2022/02/02 09:43:57;;;;;;;24.95;5.47;;;7.40;99.90;;;;;;5032735;28;20489;-56
2022/02/02 09:46:28;;;;;;;29.95;4.03;;;7.50;99.90;;;;;;5032787;28;20497;-56
2022/02/02 09:48:58;;;;;;;28.88;3.83;;;7.50;99.90;;;;;;5032834;28;20405;-53
2022/02/02 09:51:29;;;;;;;24.13;4.85;;;7.60;99.90;;;;;;5032680;28;20044;-54
2022/02/02 09:54:04;;;;;;;21.92;3.67;;;7.60;99.90;;;;;;5031973;28;20044;-54
2022/02/02 09:56:49;;;;;;;22.85;3.97;;;7.60;99.90;;;;;;5032017;28;20512;-55
2022/02/02 10:02:07;;;;;;;22.27;3.83;;;7.70;99.90;;;;;;5012700;28;20045;-52
2022/02/02 10:13:00;;;;;;;17.65;2.80;;;7.90;99.90;;;;;;5028235;28;20042;-53
2022/02/02 10:15:30;;;;;;;26.42;3.75;;;7.90;99.90;;;;;;5031302;28;20052;-56
2022/02/02 10:18:08;;;;;;;27.75;4.28;;;7.90;99.90;;;;;;5032012;28;20046;-54
2022/02/02 10:20:34;;;;;;;25.45;3.40;;;7.90;99.90;;;;;;5031968;28;20540;-55
2022/02/02 10:23:01;;;;;;;21.05;3.50;;;7.90;99.90;;;;;;5031777;28;20103;-54
2022/02/02 10:25:33;;;;;;;19.08;3.30;;;8.00;99.90;;;;;;5031994;28;20041;-53
2022/02/02 10:28:15;;;;;;;20.92;3.08;;;8.00;99.90;;;;;;5030580;28;20041;-53
2022/02/02 10:30:46;;;;;;;22.20;3.25;;;8.00;99.90;;;;;;5031771;28;20045;-52
2022/02/02 10:33:13;;;;;;;19.85;3.13;;;8.00;99.90;;;;;;5031687;28;20041;-55
2022/02/02 10:35:44;;;;;;;18.70;3.22;;;8.10;99.90;;;;;;5031715;28;20065;-53
2022/02/02 10:38:13;;;;;;;18.30;3.28;;;8.10;99.90;;;;;;5032174;28;20072;-54
2022/02/02 10:40:48;;;;;;;20.13;3.05;;;8.10;99.90;;;;;;5031831;28;20099;-53
2022/02/02 10:43:23;;;;;;;24.52;3.25;;;8.20;99.90;;;;;;5031059;28;20037;-53
2022/02/02 10:45:49;;;;;;;16.67;2.83;;;8.20;99.90;;;;;;5031435;28;20041;-53
2022/02/02 10:48:32;;;;;;;18.58;2.97;;;8.30;99.90;;;;;;5031916;28;20049;-56
2022/02/02 10:51:05;;;;;;;;;;;8.20;99.90;;;;;;5032293;28;20045;-56
2022/02/02 10:54:02;;;;;;;;;;;8.40;99.90;;;;;;5041770;22;19925;-52
2022/02/02 11:01:47;;;;;;;22.52;3.30;;;8.50;99.90;;;;;;5011927;28;20041;-52
2022/02/02 11:06:37;;;;;;;17.00;3.80;;;8.50;99.90;;;;;;5011817;28;20038;-50
2022/02/02 11:07:14;;;;;;;15.85;2.92;;;8.50;99.90;;;;;;5011537;28;20050;-53
2022/02/02 11:09:39;;;;;;;16.85;2.83;;;8.60;99.90;;;;;;5011625;28;20038;-53
2022/02/02 11:12:08;;;;;;;21.38;3.53;;;8.60;99.90;;;;;;5011338;28;20034;-50
2022/02/02 11:15:10;;;;;;;23.88;3.22;;;8.60;99.90;;;;;;5010974;28;20502;-50
2022/02/02 11:17:51;;;;;;;19.92;3.50;;;8.60;99.90;;;;;;4994289;28;20042;-51
2022/02/02 11:20:18;;;;;;;22.55;4.35;;;8.60;99.90;;;;;;5011865;28;20413;-52
2022/02/02 11:22:48;;;;;;;18.73;3.50;;;8.70;99.90;;;;;;5011507;28;20041;-53
2022/02/02 11:25:13;;;;;;;21.70;4.50;;;8.80;99.90;;;;;;5011334;28;20034;-51
2022/02/02 11:27:48;;;;;;;22.80;3.20;;;8.90;99.90;;;;;;5011163;28;20069;-51
2022/02/02 11:30:23;;;;;;;23.88;3.75;;;9.00;99.90;;;;;;5010271;28;20128;-49
2022/02/02 11:33:00;;;;;;;22.05;3.30;;;9.00;99.90;;;;;;5011367;28;20046;-50
2022/02/02 11:35:43;;;;;;;27.45;3.50;;;8.90;99.90;;;;;;5011459;28;20464;-51
2022/02/02 11:38:22;;;;;;;21.98;3.95;;;8.90;99.90;;;;;;5011577;28;20030;-49
2022/02/02 11:43:50;;;;;;;17.48;3.65;;;8.90;99.90;;;;;;5015255;28;20218;-49
2022/02/02 11:46:51;;;;;;;22.98;3.38;;;8.90;99.90;;;;;;5015020;28;20050;-51
2022/02/02 11:49:23;;;;;;;19.45;3.47;;;8.90;99.90;;;;;;4997582;28;20042;-49
2022/02/02 11:51:51;;;;;;;17.50;2.97;;;8.90;99.90;;;;;;5015111;28;20046;-49
2022/02/02 11:54:42;;;;;;;25.23;3.55;;;8.90;99.90;;;;;;5015018;28;20034;-49
2022/02/02 11:59:48;;;;;;;14.52;3.05;;;8.90;99.90;;;;;;5015065;28;20038;-49
2022/02/02 12:02:31;;;;;;;18.00;3.17;;;8.90;99.90;;;;;;4997289;28;20042;-49
2022/02/02 12:58:23;;;;;;;10.10;2.45;;;9.10;97.40;;;;;;4998807;28;20048;-53
2022/02/02 13:01:08;;;;;;;12.00;2.45;;;9.20;97.70;;;;;;4999333;28;20119;-53
2022/02/02 13:03:38;;;;;;;14.18;2.45;;;9.10;97.80;;;;;;5012287;28;20484;-53
2022/02/02 13:06:10;;;;;;;14.70;2.55;;;9.20;98.20;;;;;;5007096;28;20041;-50
2022/02/02 13:08:35;;;;;;;7.57;1.97;;;9.20;97.50;;;;;;5009532;28;20065;-50
2022/02/02 13:11:01;;;;;;;13.57;2.47;;;9.30;97.00;;;;;;5012820;28;20073;-49
2022/02/02 13:13:29;;;;;;;19.63;2.80;;;9.30;96.60;;;;;;5012458;28;20034;-53
2022/02/02 13:16:10;;;;;;;15.30;2.80;;;9.30;96.80;;;;;;4999254;28;20045;-53
2022/02/02 13:18:42;;;;;;;17.20;3.33;;;9.40;97.20;;;;;;5002534;28;20030;-53
2022/02/02 13:21:19;;;;;;;;;;;9.40;96.20;;;;;;5003717;28;20089;-53
2022/02/02 13:27:01;;;;;;;21.27;2.90;;;9.50;95.70;;;;;;5002323;28;20121;-52
2022/02/02 13:29:47;;;;;;;11.65;2.88;;;9.50;96.10;;;;;;5002208;28;20054;-52
2022/02/02 13:32:22;;;;;;;19.27;3.55;;;9.60;96.30;;;;;;5003964;28;20127;-53
2022/02/02 14:06:57;;;;;;;23.27;4.05;;;9.30;97.60;;;;;;5003135;28;20399;-51
2022/02/02 14:09:56;;;;;;;24.67;4.07;;;9.30;97.90;;;;;;5008999;28;20134;-53
2022/02/02 14:26:11;;;;;;;22.60;4.07;;;9.10;99.20;;;;;;4997148;28;20045;-52
2022/02/02 14:31:23;;;;;;;25.75;3.95;;;9.10;99.10;;;;;;5010209;28;20552;-53
2022/02/02 14:33:52;;;;;;;29.70;5.53;;;9.10;98.90;;;;;;5012105;28;20042;-53
2022/02/02 14:36:22;;;;;;;29.55;5.07;;;9.10;98.50;;;;;;5010787;28;20054;-53
2022/02/02 14:38:58;;;;;;;23.75;3.60;;;9.10;98.10;;;;;;5000713;28;20053;-52
2022/02/02 14:41:44;;;;;;;26.05;4.20;;;9.00;98.20;;;;;;4996908;28;20034;-53
2022/02/02 14:44:17;;;;;;;27.17;4.75;;;9.00;98.40;;;;;;4999446;28;20391;-52
2022/02/02 14:49:14;;;;;;;21.20;3.58;;;8.90;98.30;;;;;;5005083;28;20501;-52
2022/02/02 14:55:02;;;;;;;22.60;4.35;;;8.90;98.30;;;;;;4999913;28;20061;-51
2022/02/02 15:06:20;;;;;;;16.30;4.18;;;8.80;97.40;;;;;;5005877;28;20041;-53
2022/02/02 15:32:16;;;;;;;16.87;3.37;;;8.50;98.30;;;;;;5007448;28;20394;-53
2022/02/02 15:34:46;;;;;;;20.45;3.63;;;8.40;98.10;;;;;;5011959;28;20295;-53
2022/02/02 15:37:22;;;;;;;19.95;3.92;;;8.40;98.30;;;;;;5008583;28;20049;-53
2022/02/02 15:39:58;;;;;;;15.55;2.80;;;8.40;98.50;;;;;;5014787;28;20034;-53
2022/02/02 15:42:39;;;;;;;17.40;3.47;;;8.30;98.70;;;;;;5017926;28;20041;-53
2022/02/02 15:58:56;;;;;;;14.52;3.33;;;8.00;99.60;;;;;;4979823;28;20050;-52
2022/02/02 16:03:55;;;;;;;13.57;3.25;;;7.80;99.50;;;;;;5017607;28;20410;-50
2022/02/02 16:06:24;;;;;;;15.30;3.33;;;7.80;99.60;;;;;;5013712;28;20052;-53
2022/02/02 16:08:57;;;;;;;18.70;3.70;;;7.70;99.70;;;;;;5014109;28;20042;-53
2022/02/02 16:11:29;;;;;;;17.60;4.03;;;7.70;99.90;;;;;;5013899;28;20037;-49
2022/02/02 16:14:02;;;;;;;18.88;4.15;;;7.60;99.80;;;;;;5010440;28;20522;-52
2022/02/02 16:19:13;;;;;;;17.45;3.17;;;7.50;99.90;;;;;;5007285;28;20442;-53
2022/02/02 16:38:10;;;;;;;25.48;4.55;;;7.20;99.90;;;;;;4997833;28;20072;-50
2022/02/02 16:40:37;;;;;;;21.40;4.45;;;7.20;99.90;;;;;;4999930;28;20508;-51
2022/02/02 16:43:13;;;;;;;19.92;3.33;;;7.20;99.90;;;;;;5008549;28;20046;-50
2022/02/02 16:45:40;;;;;;;19.08;3.92;;;7.10;99.90;;;;;;5012240;28;20069;-51
2022/02/02 16:48:06;;;;;;;22.55;3.28;;;7.10;99.90;;;;;;5013937;28;20042;-48
2022/02/02 16:50:35;;;;;;;21.48;3.28;;;7.10;99.90;;;;;;5011934;28;20096;-48
2022/02/02 16:53:07;;;;;;;15.95;3.28;;;7.10;99.90;;;;;;5007373;28;20089;-49
2022/02/02 16:55:41;;;;;;;14.63;2.97;;;7.00;99.90;;;;;;5009196;28;20113;-48
2022/02/02 17:30:39;;;;;;;18.95;4.38;;;6.60;99.90;;;;;;5007722;28;20415;-47
2022/02/02 17:33:13;;;;;;;19.83;3.85;;;6.60;99.90;;;;;;5003230;28;20046;-50
2022/02/02 17:35:54;;;;;;;19.13;4.88;;;6.60;99.90;;;;;;5012144;28;20625;-50
2022/02/02 17:38:49;;;;;;;17.05;4.63;;;6.50;99.90;;;;;;5004239;28;20061;-48
2022/02/02 17:44:12;;;;;;;22.35;5.10;;;6.50;99.90;;;;;;5000052;28;20492;-53
2022/02/02 18:00:44;;;;;;;30.95;7.82;;;6.40;99.90;;;;;;5001154;28;20045;-49
2022/02/02 18:19:09;;;;;;;30.98;8.82;;;6.30;99.90;;;;;;5009071;28;20045;-46
2022/02/02 18:21:35;;;;;;;30.80;10.25;;;6.20;99.90;;;;;;5012306;28;20110;-50
2022/02/02 18:26:39;;;;;;;31.20;8.50;;;6.20;99.90;;;;;;5011488;28;20081;-50
2022/02/02 18:34:36;;;;;;;32.05;12.27;;;6.20;99.90;;;;;;5004497;28;20465;-50
2022/02/02 18:48:14;;;;;;;23.90;7.25;;;6.00;99.90;;;;;;5011725;28;20069;-48
2022/02/02 18:51:02;;;;;;;18.60;6.38;;;6.00;99.90;;;;;;5010408;28;20120;-50
2022/02/02 18:58:46;;;;;;;23.50;7.40;;;6.00;99.90;;;;;;5010140;28;20042;-48
2022/02/02 19:04:20;;;;;;;22.98;6.10;;;6.10;99.90;;;;;;5006087;28;20395;-50
2022/02/02 19:07:20;;;;;;;23.10;4.88;;;6.00;99.90;;;;;;5011003;28;20045;-51
2022/02/02 19:26:06;;;;;;;17.55;5.28;;;6.10;99.90;;;;;;5006427;28;20069;-46
2022/02/02 19:37:24;;;;;;;14.45;3.40;;;6.10;99.90;;;;;;4999460;28;20540;-49
2022/02/02 19:56:39;;;;;;;19.27;5.40;;;6.30;99.90;;;;;;5001817;28;20123;-47
2022/02/02 20:01:56;;;;;;;21.70;4.47;;;6.30;99.90;;;;;;5011000;28;20104;-50
2022/02/02 20:04:40;;;;;;;21.13;5.18;;;6.30;99.90;;;;;;5005296;28;20823;-46
2022/02/02 20:09:56;;;;;;;20.75;4.85;;;6.40;99.90;;;;;;5011984;28;20037;-49
2022/02/02 20:12:36;;;;;;;19.38;5.50;;;6.40;99.90;;;;;;5011620;28;20050;-46
2022/02/02 20:15:02;;;;;;;25.20;5.28;;;6.40;99.90;;;;;;5012530;28;20046;-49
2022/02/02 20:17:28;;;;;;;17.70;4.95;;;6.40;99.90;;;;;;5009702;28;20040;-50
2022/02/02 20:19:57;;;;;;;19.48;6.57;;;6.50;99.90;;;;;;5014496;28;20557;-46
2022/02/02 20:22:26;;;;;;;22.75;5.57;;;6.50;99.90;;;;;;5008365;28;20429;-49
2022/02/02 20:24:58;;;;;;;20.67;5.85;;;6.50;99.90;;;;;;5006312;28;20038;-47
2022/02/02 20:27:25;;;;;;;21.38;5.95;;;6.60;99.90;;;;;;5014237;28;20461;-46
2022/02/02 20:29:50;;;;;;;22.05;6.15;;;6.60;99.90;;;;;;5014497;28;20070;-46
2022/02/02 20:32:16;;;;;;;21.85;5.97;;;6.60;99.90;;;;;;5014271;28;20092;-47
2022/02/02 20:34:41;;;;;;;21.42;6.20;;;6.60;99.90;;;;;;5013836;28;20108;-48
2022/02/02 20:37:08;;;;;;;29.48;6.43;;;6.60;99.90;;;;;;5014143;28;20125;-47
2022/02/02 20:42:03;;;;;;;34.60;8.13;;;6.80;99.90;;;;;;5011290;28;20049;-52
2022/02/02 20:44:47;;;;;;;27.60;7.70;;;6.80;99.90;;;;;;5005779;28;20042;-47
2022/02/02 21:00:23;;;;;;;25.45;6.68;;;6.90;99.90;;;;;;5008326;28;20062;-47
2022/02/02 21:14:48;;;;;;;30.10;8.55;;;6.90;99.90;;;;;;4949740;28;20062;-52
2022/02/02 21:17:23;;;;;;;39.42;9.95;;;6.90;99.90;;;;;;4998657;28;20126;-52
2022/02/02 21:20:09;;;;;;;34.30;9.40;;;6.90;99.90;;;;;;5009744;28;20049;-51
2022/02/02 21:22:46;;;;;;;36.45;10.38;;;6.90;99.90;;;;;;5010575;28;20096;-50
2022/02/02 21:27:57;;;;;;;33.10;9.95;;;6.90;99.90;;;;;;5012023;28;20121;-51
2022/02/02 21:30:24;;;;;;;37.65;12.95;;;6.90;99.90;;;;;;5011141;28;20037;-49
2022/02/02 21:32:50;;;;;;;39.67;18.13;;;6.90;99.90;;;;;;4994799;28;20076;-52
2022/02/02 21:35:17;;;;;;;37.72;10.75;;;6.90;99.90;;;;;;5012116;28;20101;-52
2022/02/02 21:37:46;;;;;;;37.78;11.52;;;6.90;99.90;;;;;;5012982;28;20065;-51
2022/02/02 21:40:25;;;;;;;45.95;18.90;;;6.90;99.90;;;;;;5012492;28;20029;-53
2022/02/02 21:42:54;;;;;;;31.70;10.63;;;6.90;99.90;;;;;;5004878;28;20044;-51
2022/02/02 21:45:21;;;;;;;31.63;9.60;;;6.90;99.90;;;;;;4998220;28;20054;-49
2022/02/02 21:47:47;;;;;;;37.20;11.13;;;6.90;99.90;;;;;;4996294;28;20061;-52
2022/02/02 21:50:16;;;;;;;38.47;10.77;;;6.90;99.90;;;;;;4994707;28;20088;-52
2022/02/02 21:52:43;;;;;;;35.28;11.23;;;6.90;99.90;;;;;;4995603;28;20148;-51
2022/02/02 21:55:10;;;;;;;37.15;10.40;;;6.90;99.90;;;;;;4996545;28;20042;-49
2022/02/02 21:57:35;;;;;;;31.75;11.88;;;6.90;99.90;;;;;;4998183;28;20026;-52
2022/02/02 22:00:04;;;;;;;42.22;12.25;;;6.90;99.90;;;;;;4983481;28;20479;-52
2022/02/02 22:02:32;;;;;;;42.47;11.68;;;6.90;99.90;;;;;;4997818;28;20034;-51
2022/02/02 22:04:59;;;;;;;44.15;14.40;;;6.90;99.90;;;;;;5003783;28;20037;-49
2022/02/02 22:07:25;;;;;;;36.83;12.40;;;6.90;99.90;;;;;;5010951;28;20367;-51
2022/02/02 22:09:55;;;;;;;40.20;14.27;;;7.00;99.90;;;;;;5006215;28;20038;-52
2022/02/02 22:12:21;;;;;;;42.22;14.52;;;7.00;99.90;;;;;;5012068;28;20493;-53
2022/02/02 22:14:49;;;;;;;52.05;15.63;;;7.00;99.90;;;;;;5012273;28;20049;-50
2022/02/02 22:17:16;;;;;;;45.55;15.18;;;7.00;99.90;;;;;;5012523;28;20042;-52
2022/02/02 22:19:41;;;;;;;49.30;16.63;;;7.00;99.90;;;;;;5011776;28;20104;-49
2022/02/02 22:22:07;;;;;;;39.65;15.93;;;7.10;99.90;;;;;;5012550;28;20034;-50
2022/02/02 22:24:36;;;;;;;48.15;17.98;;;7.10;99.90;;;;;;5011255;28;20046;-51
2022/02/02 22:27:02;;;;;;;54.22;18.67;;;7.10;99.90;;;;;;4998625;28;20117;-49
2022/02/02 22:29:27;;;;;;;52.42;19.13;;;7.10;99.90;;;;;;4992721;28;20117;-50
2022/02/02 22:31:53;;;;;;;60.33;19.58;;;7.10;99.90;;;;;;4996374;28;20523;-50
2022/02/02 22:34:18;;;;;;;54.08;19.33;;;7.20;99.90;;;;;;5004768;28;20037;-50
2022/02/02 22:36:44;;;;;;;63.38;21.15;;;7.20;99.90;;;;;;5011710;28;20037;-50
2022/02/02 22:39:10;;;;;;;62.53;22.13;;;7.20;99.90;;;;;;5013032;28;20038;-48
2022/02/02 22:41:36;;;;;;;58.95;22.80;;;7.20;99.90;;;;;;5012080;28;20092;-47
2022/02/02 22:44:07;;;;;;;69.40;23.52;;;7.20;99.90;;;;;;5006757;28;20042;-47
2022/02/02 22:46:34;;;;;;;86.38;24.33;;;7.30;99.90;;;;;;5003560;28;20038;-51
2022/02/02 22:49:00;;;;;;;70.82;23.70;;;7.30;99.90;;;;;;5012001;28;20053;-49
2022/02/02 22:51:27;;;;;;;74.93;25.05;;;7.30;99.90;;;;;;5011985;28;20041;-47
2022/02/02 22:53:53;;;;;;;71.10;24.50;;;7.30;99.90;;;;;;5006627;28;20057;-47
2022/02/02 22:56:18;;;;;;;76.00;24.83;;;7.30;99.90;;;;;;5024475;23;20049;-52
2022/02/02 22:58:48;;;;;;;71.22;24.40;;;7.40;99.90;;;;;;5010776;28;20034;-52
2022/02/02 23:01:14;;;;;;;62.17;25.10;;;7.40;99.90;;;;;;5008664;28;20124;-53
2022/02/02 23:03:40;;;;;;;70.45;25.52;;;7.40;99.90;;;;;;5009629;28;20050;-51
2022/02/02 23:06:05;;;;;;;82.15;27.38;;;7.50;99.90;;;;;;5010204;28;20045;-50
2022/02/02 23:08:31;;;;;;;83.95;27.48;;;7.50;99.90;;;;;;5001705;28;20081;-55
2022/02/02 23:10:58;;;;;;;76.95;26.95;;;7.60;99.90;;;;;;4992438;28;20125;-56
2022/02/02 23:13:23;;;;;;;68.55;25.55;;;7.60;99.90;;;;;;5001677;28;20050;-54
2022/02/02 23:16:04;;;;;;;68.28;25.75;;;7.70;99.90;;;;;;4995058;28;20039;-54
2022/02/02 23:18:34;;;;;;;68.13;25.30;;;7.80;99.90;;;;;;4992069;28;20038;-55
2022/02/02 23:21:06;;;;;;;76.72;26.30;;;7.80;99.90;;;;;;4991499;28;20395;-53
2022/02/02 23:23:42;;;;;;;68.78;24.08;;;7.80;99.90;;;;;;4991934;28;20068;-54
2022/02/02 23:26:09;;;;;;;75.38;23.88;;;7.90;99.90;;;;;;4990902;28;20125;-51
2022/02/02 23:28:39;;;;;;;70.22;25.25;;;7.90;99.90;;;;;;4991690;28;20445;-52
2022/02/02 23:31:08;;;;;;;68.85;23.65;;;7.90;99.90;;;;;;4992339;28;20058;-55